sensor_id;sensor_type;location;lat;lon;timestamp;P1;durP1;ratioP1;P2;durP2;ratioP2
40757;SDS011;26462;47.384;19.218;2022-09-09T00:00:46;1.88;;;0.30;;
40757;SDS011;26462;47.384;19.218;2022-09-09T00:03:46;1.00;;;0.35;;
40757;SDS011;26462;47.384;19.218;2022-09-09T00:06:36;0.80;;;0.40;;
40757;SDS011;26462;47.384;19.218;2022-09-09T00:09:25;3.92;;;0.57;;
40757;SDS011;26462;47.384;19.218;2022-09-09T00:12:00;1.35;;;0.52;;
40757;SDS011;26462;47.384;19.218;2022-09-09T00:14:42;2.08;;;0.60;;
40757;SDS011;26462;47.384;19.218;2022-09-09T00:19:56;1.92;;;0.40;;
40757;SDS011;26462;47.384;19.218;2022-09-09T00:22:49;1.00;;;0.40;;
40757;SDS011;26462;47.384;19.218;2022-09-09T00:25:23;2.20;;;0.73;;
40757;SDS011;26462;47.384;19.218;2022-09-09T00:28:00;2.90;;;0.50;;
40757;SDS011;26462;47.384;19.218;2022-09-09T00:30:31;1.75;;;0.60;;
40757;SDS011;26462;47.384;19.218;2022-09-09T00:33:01;1.63;;;0.40;;
40757;SDS011;26462;47.384;19.218;2022-09-09T00:35:40;1.23;;;0.55;;
40757;SDS011;26462;47.384;19.218;2022-09-09T00:38:32;1.20;;;0.50;;
40757;SDS011;26462;47.384;19.218;2022-09-09T00:43:38;2.75;;;0.88;;
40757;SDS011;26462;47.384;19.218;2022-09-09T00:59:56;0.85;;;0.30;;
40757;SDS011;26462;47.384;19.218;2022-09-09T01:02:31;1.10;;;0.50;;
40757;SDS011;26462;47.384;19.218;2022-09-09T01:08:06;0.80;;;0.40;;
40757;SDS011;26462;47.384;19.218;2022-09-09T01:10:44;2.45;;;0.70;;
40757;SDS011;26462;47.384;19.218;2022-09-09T01:13:28;1.77;;;0.40;;
40757;SDS011;26462;47.384;19.218;2022-09-09T01:16:01;1.48;;;0.30;;
40757;SDS011;26462;47.384;19.218;2022-09-09T01:18:40;1.00;;;0.40;;
40757;SDS011;26462;47.384;19.218;2022-09-09T01:24:18;1.75;;;0.57;;
40757;SDS011;26462;47.384;19.218;2022-09-09T01:27:09;1.58;;;0.40;;
40757;SDS011;26462;47.384;19.218;2022-09-09T01:29:38;1.38;;;0.50;;
40757;SDS011;26462;47.384;19.218;2022-09-09T01:35:10;1.80;;;0.40;;
40757;SDS011;26462;47.384;19.218;2022-09-09T01:37:59;1.58;;;0.60;;
40757;SDS011;26462;47.384;19.218;2022-09-09T01:40:26;0.90;;;0.50;;
40757;SDS011;26462;47.384;19.218;2022-09-09T01:42:56;1.23;;;0.38;;
40757;SDS011;26462;47.384;19.218;2022-09-09T01:45:24;2.65;;;0.68;;
40757;SDS011;26462;47.384;19.218;2022-09-09T01:47:54;1.55;;;0.43;;
40757;SDS011;26462;47.384;19.218;2022-09-09T01:50:44;2.45;;;0.50;;
40757;SDS011;26462;47.384;19.218;2022-09-09T01:53:11;0.80;;;0.50;;
40757;SDS011;26462;47.384;19.218;2022-09-09T01:55:41;2.10;;;0.70;;
40757;SDS011;26462;47.384;19.218;2022-09-09T02:00:59;1.52;;;0.70;;
40757;SDS011;26462;47.384;19.218;2022-09-09T02:03:33;0.98;;;0.60;;
40757;SDS011;26462;47.384;19.218;2022-09-09T02:06:33;1.63;;;0.63;;
40757;SDS011;26462;47.384;19.218;2022-09-09T02:09:14;1.73;;;0.73;;
40757;SDS011;26462;47.384;19.218;2022-09-09T02:11:45;1.45;;;0.60;;
40757;SDS011;26462;47.384;19.218;2022-09-09T02:14:36;0.90;;;0.47;;
40757;SDS011;26462;47.384;19.218;2022-09-09T02:17:09;1.70;;;0.68;;
40757;SDS011;26462;47.384;19.218;2022-09-09T02:20:00;2.35;;;0.70;;
40757;SDS011;26462;47.384;19.218;2022-09-09T02:22:48;1.88;;;0.80;;
40757;SDS011;26462;47.384;19.218;2022-09-09T02:25:19;1.75;;;0.77;;
40757;SDS011;26462;47.384;19.218;2022-09-09T02:27:52;1.25;;;0.65;;
40757;SDS011;26462;47.384;19.218;2022-09-09T02:30:20;1.65;;;0.73;;
40757;SDS011;26462;47.384;19.218;2022-09-09T02:32:54;1.30;;;0.70;;
40757;SDS011;26462;47.384;19.218;2022-09-09T02:35:37;2.40;;;1.08;;
40757;SDS011;26462;47.384;19.218;2022-09-09T02:38:07;1.77;;;0.90;;
40757;SDS011;26462;47.384;19.218;2022-09-09T02:40:42;3.38;;;0.77;;
40757;SDS011;26462;47.384;19.218;2022-09-09T02:43:09;1.27;;;0.70;;
40757;SDS011;26462;47.384;19.218;2022-09-09T02:45:48;2.53;;;1.10;;
40757;SDS011;26462;47.384;19.218;2022-09-09T02:48:44;2.80;;;0.80;;
40757;SDS011;26462;47.384;19.218;2022-09-09T02:51:24;1.77;;;0.90;;
40757;SDS011;26462;47.384;19.218;2022-09-09T02:54:09;4.05;;;1.02;;
40757;SDS011;26462;47.384;19.218;2022-09-09T02:57:11;2.33;;;1.00;;
40757;SDS011;26462;47.384;19.218;2022-09-09T02:59:40;4.40;;;1.25;;
40757;SDS011;26462;47.384;19.218;2022-09-09T03:02:09;3.17;;;0.88;;
40757;SDS011;26462;47.384;19.218;2022-09-09T03:04:39;1.80;;;1.30;;
40757;SDS011;26462;47.384;19.218;2022-09-09T03:07:08;1.75;;;0.85;;
40757;SDS011;26462;47.384;19.218;2022-09-09T03:09:36;1.58;;;1.02;;
40757;SDS011;26462;47.384;19.218;2022-09-09T03:12:03;3.03;;;0.82;;
40757;SDS011;26462;47.384;19.218;2022-09-09T03:14:33;3.15;;;1.35;;
40757;SDS011;26462;47.384;19.218;2022-09-09T03:17:00;2.47;;;0.95;;
40757;SDS011;26462;47.384;19.218;2022-09-09T03:19:34;1.75;;;1.00;;
40757;SDS011;26462;47.384;19.218;2022-09-09T03:22:03;3.08;;;1.50;;
40757;SDS011;26462;47.384;19.218;2022-09-09T03:24:35;2.85;;;1.08;;
40757;SDS011;26462;47.384;19.218;2022-09-09T03:27:03;3.00;;;1.60;;
40757;SDS011;26462;47.384;19.218;2022-09-09T03:29:31;2.55;;;1.60;;
40757;SDS011;26462;47.384;19.218;2022-09-09T03:32:01;2.10;;;1.30;;
40757;SDS011;26462;47.384;19.218;2022-09-09T03:34:29;2.38;;;1.15;;
40757;SDS011;26462;47.384;19.218;2022-09-09T03:36:57;2.45;;;1.10;;
40757;SDS011;26462;47.384;19.218;2022-09-09T03:39:26;2.78;;;1.17;;
40757;SDS011;26462;47.384;19.218;2022-09-09T03:41:53;2.00;;;1.33;;
40757;SDS011;26462;47.384;19.218;2022-09-09T03:44:21;2.97;;;1.20;;
40757;SDS011;26462;47.384;19.218;2022-09-09T03:46:48;2.65;;;1.58;;
40757;SDS011;26462;47.384;19.218;2022-09-09T03:49:15;3.13;;;1.48;;
40757;SDS011;26462;47.384;19.218;2022-09-09T03:51:43;1.90;;;1.30;;
40757;SDS011;26462;47.384;19.218;2022-09-09T03:54:12;2.20;;;1.40;;
40757;SDS011;26462;47.384;19.218;2022-09-09T03:56:39;2.17;;;1.13;;
40757;SDS011;26462;47.384;19.218;2022-09-09T03:59:11;2.63;;;1.35;;
40757;SDS011;26462;47.384;19.218;2022-09-09T04:01:38;3.63;;;1.35;;
40757;SDS011;26462;47.384;19.218;2022-09-09T04:04:06;2.20;;;1.48;;
40757;SDS011;26462;47.384;19.218;2022-09-09T04:06:35;3.97;;;1.27;;
40757;SDS011;26462;47.384;19.218;2022-09-09T04:09:02;2.00;;;1.10;;
40757;SDS011;26462;47.384;19.218;2022-09-09T04:11:30;1.95;;;1.02;;
40757;SDS011;26462;47.384;19.218;2022-09-09T04:13:58;1.70;;;1.00;;
40757;SDS011;26462;47.384;19.218;2022-09-09T04:16:27;2.17;;;1.23;;
40757;SDS011;26462;47.384;19.218;2022-09-09T04:18:55;2.80;;;1.17;;
40757;SDS011;26462;47.384;19.218;2022-09-09T04:21:23;2.38;;;1.45;;
40757;SDS011;26462;47.384;19.218;2022-09-09T04:23:50;1.83;;;1.10;;
40757;SDS011;26462;47.384;19.218;2022-09-09T04:26:18;2.08;;;1.30;;
40757;SDS011;26462;47.384;19.218;2022-09-09T04:28:46;3.08;;;1.75;;
40757;SDS011;26462;47.384;19.218;2022-09-09T04:31:20;2.95;;;1.17;;
40757;SDS011;26462;47.384;19.218;2022-09-09T04:33:53;3.00;;;1.63;;
40757;SDS011;26462;47.384;19.218;2022-09-09T04:36:20;2.38;;;1.33;;
40757;SDS011;26462;47.384;19.218;2022-09-09T04:38:51;5.20;;;2.28;;
40757;SDS011;26462;47.384;19.218;2022-09-09T04:41:19;3.00;;;1.95;;
40757;SDS011;26462;47.384;19.218;2022-09-09T04:43:50;2.33;;;1.48;;
40757;SDS011;26462;47.384;19.218;2022-09-09T04:46:21;3.33;;;1.80;;
40757;SDS011;26462;47.384;19.218;2022-09-09T04:48:52;3.22;;;1.75;;
40757;SDS011;26462;47.384;19.218;2022-09-09T04:51:24;2.42;;;1.63;;
40757;SDS011;26462;47.384;19.218;2022-09-09T04:53:51;2.88;;;1.90;;
40757;SDS011;26462;47.384;19.218;2022-09-09T04:56:20;3.40;;;1.85;;
40757;SDS011;26462;47.384;19.218;2022-09-09T04:58:51;5.07;;;2.33;;
40757;SDS011;26462;47.384;19.218;2022-09-09T05:01:22;5.75;;;2.65;;
40757;SDS011;26462;47.384;19.218;2022-09-09T05:03:53;3.17;;;2.20;;
40757;SDS011;26462;47.384;19.218;2022-09-09T05:06:22;3.25;;;1.90;;
40757;SDS011;26462;47.384;19.218;2022-09-09T05:08:54;2.05;;;1.23;;
40757;SDS011;26462;47.384;19.218;2022-09-09T05:11:25;3.67;;;1.60;;
40757;SDS011;26462;47.384;19.218;2022-09-09T05:13:59;4.60;;;2.05;;
40757;SDS011;26462;47.384;19.218;2022-09-09T05:16:29;4.95;;;2.40;;
40757;SDS011;26462;47.384;19.218;2022-09-09T05:18:57;3.92;;;1.90;;
40757;SDS011;26462;47.384;19.218;2022-09-09T05:21:34;2.72;;;1.92;;
40757;SDS011;26462;47.384;19.218;2022-09-09T05:24:01;3.55;;;2.30;;
40757;SDS011;26462;47.384;19.218;2022-09-09T05:26:29;3.47;;;2.28;;
40757;SDS011;26462;47.384;19.218;2022-09-09T05:28:58;4.68;;;2.63;;
40757;SDS011;26462;47.384;19.218;2022-09-09T05:31:29;7.57;;;2.38;;
40757;SDS011;26462;47.384;19.218;2022-09-09T05:34:00;4.97;;;2.30;;
40757;SDS011;26462;47.384;19.218;2022-09-09T05:36:28;4.88;;;2.20;;
40757;SDS011;26462;47.384;19.218;2022-09-09T05:38:55;4.88;;;2.67;;
40757;SDS011;26462;47.384;19.218;2022-09-09T05:41:25;3.72;;;2.50;;
40757;SDS011;26462;47.384;19.218;2022-09-09T05:43:55;4.57;;;2.20;;
40757;SDS011;26462;47.384;19.218;2022-09-09T05:46:23;2.85;;;2.40;;
40757;SDS011;26462;47.384;19.218;2022-09-09T05:48:53;5.00;;;2.60;;
40757;SDS011;26462;47.384;19.218;2022-09-09T05:51:27;3.83;;;2.70;;
40757;SDS011;26462;47.384;19.218;2022-09-09T05:54:00;4.18;;;2.28;;
40757;SDS011;26462;47.384;19.218;2022-09-09T05:56:31;2.70;;;1.85;;
40757;SDS011;26462;47.384;19.218;2022-09-09T05:58:59;3.90;;;2.22;;
40757;SDS011;26462;47.384;19.218;2022-09-09T06:01:29;4.93;;;2.38;;
40757;SDS011;26462;47.384;19.218;2022-09-09T06:04:00;2.83;;;1.70;;
40757;SDS011;26462;47.384;19.218;2022-09-09T06:06:32;5.07;;;1.85;;
40757;SDS011;26462;47.384;19.218;2022-09-09T06:09:09;2.55;;;2.08;;
40757;SDS011;26462;47.384;19.218;2022-09-09T06:11:40;4.00;;;1.92;;
40757;SDS011;26462;47.384;19.218;2022-09-09T06:14:09;3.33;;;1.55;;
40757;SDS011;26462;47.384;19.218;2022-09-09T06:16:38;5.43;;;2.00;;
40757;SDS011;26462;47.384;19.218;2022-09-09T06:19:14;3.22;;;1.52;;
40757;SDS011;26462;47.384;19.218;2022-09-09T06:21:44;3.17;;;1.42;;
40757;SDS011;26462;47.384;19.218;2022-09-09T06:24:13;3.20;;;1.40;;
40757;SDS011;26462;47.384;19.218;2022-09-09T06:27:10;2.75;;;1.08;;
40757;SDS011;26462;47.384;19.218;2022-09-09T06:29:41;3.08;;;1.00;;
40757;SDS011;26462;47.384;19.218;2022-09-09T06:32:10;1.30;;;1.00;;
40757;SDS011;26462;47.384;19.218;2022-09-09T06:35:03;4.13;;;1.40;;
40757;SDS011;26462;47.384;19.218;2022-09-09T06:37:33;3.70;;;1.70;;
40757;SDS011;26462;47.384;19.218;2022-09-09T06:40:00;4.78;;;1.85;;
40757;SDS011;26462;47.384;19.218;2022-09-09T06:42:28;3.80;;;1.90;;
40757;SDS011;26462;47.384;19.218;2022-09-09T07:15:28;5.43;;;2.40;;
40757;SDS011;26462;47.384;19.218;2022-09-09T07:17:58;2.85;;;1.65;;
40757;SDS011;26462;47.384;19.218;2022-09-09T07:20:34;5.45;;;1.25;;
40757;SDS011;26462;47.384;19.218;2022-09-09T07:23:26;1.42;;;0.80;;
40757;SDS011;26462;47.384;19.218;2022-09-09T07:25:54;1.80;;;1.00;;
40757;SDS011;26462;47.384;19.218;2022-09-09T07:28:21;2.20;;;1.05;;
40757;SDS011;26462;47.384;19.218;2022-09-09T07:30:53;5.63;;;1.23;;
40757;SDS011;26462;47.384;19.218;2022-09-09T07:33:22;1.10;;;0.45;;
40757;SDS011;26462;47.384;19.218;2022-09-09T07:35:51;0.60;;;0.35;;
40757;SDS011;26462;47.384;19.218;2022-09-09T07:38:22;3.05;;;0.57;;
40757;SDS011;26462;47.384;19.218;2022-09-09T07:40:49;2.33;;;0.40;;
40757;SDS011;26462;47.384;19.218;2022-09-09T07:43:17;2.70;;;0.60;;
40757;SDS011;26462;47.384;19.218;2022-09-09T07:45:45;2.25;;;0.68;;
40757;SDS011;26462;47.384;19.218;2022-09-09T07:48:13;0.85;;;0.63;;
40757;SDS011;26462;47.384;19.218;2022-09-09T07:50:41;1.00;;;0.60;;
40757;SDS011;26462;47.384;19.218;2022-09-09T07:53:08;1.83;;;1.00;;
40757;SDS011;26462;47.384;19.218;2022-09-09T07:55:36;3.60;;;0.50;;
40757;SDS011;26462;47.384;19.218;2022-09-09T07:58:03;1.30;;;0.40;;
40757;SDS011;26462;47.384;19.218;2022-09-09T08:00:31;1.83;;;1.00;;
40757;SDS011;26462;47.384;19.218;2022-09-09T08:03:00;1.13;;;0.45;;
40757;SDS011;26462;47.384;19.218;2022-09-09T08:05:29;1.20;;;0.70;;
40757;SDS011;26462;47.384;19.218;2022-09-09T08:07:56;1.92;;;0.73;;
40757;SDS011;26462;47.384;19.218;2022-09-09T08:10:23;1.60;;;0.80;;
40757;SDS011;26462;47.384;19.218;2022-09-09T08:12:53;1.88;;;0.88;;
40757;SDS011;26462;47.384;19.218;2022-09-09T08:15:41;2.35;;;1.00;;
40757;SDS011;26462;47.384;19.218;2022-09-09T08:18:10;1.58;;;0.63;;
40757;SDS011;26462;47.384;19.218;2022-09-09T08:20:37;3.65;;;0.73;;
40757;SDS011;26462;47.384;19.218;2022-09-09T08:23:05;2.53;;;0.80;;
40757;SDS011;26462;47.384;19.218;2022-09-09T08:25:33;1.60;;;0.70;;
40757;SDS011;26462;47.384;19.218;2022-09-09T08:28:01;1.77;;;0.68;;
40757;SDS011;26462;47.384;19.218;2022-09-09T08:30:30;1.50;;;0.63;;
40757;SDS011;26462;47.384;19.218;2022-09-09T08:32:57;1.35;;;0.52;;
40757;SDS011;26462;47.384;19.218;2022-09-09T08:35:26;1.60;;;0.73;;
40757;SDS011;26462;47.384;19.218;2022-09-09T08:38:00;1.42;;;0.70;;
40757;SDS011;26462;47.384;19.218;2022-09-09T08:40:36;2.70;;;0.60;;
40757;SDS011;26462;47.384;19.218;2022-09-09T08:43:07;1.15;;;0.70;;
40757;SDS011;26462;47.384;19.218;2022-09-09T08:45:56;1.17;;;0.30;;
40757;SDS011;26462;47.384;19.218;2022-09-09T08:51:40;0.70;;;0.40;;
40757;SDS011;26462;47.384;19.218;2022-09-09T08:54:08;2.38;;;0.50;;
40757;SDS011;26462;47.384;19.218;2022-09-09T08:56:36;1.42;;;0.90;;
40757;SDS011;26462;47.384;19.218;2022-09-09T08:59:04;2.63;;;0.55;;
40757;SDS011;26462;47.384;19.218;2022-09-09T09:02:00;2.45;;;0.50;;
40757;SDS011;26462;47.384;19.218;2022-09-09T09:10:48;1.45;;;0.80;;
40757;SDS011;26462;47.384;19.218;2022-09-09T09:13:26;5.10;;;0.70;;
40757;SDS011;26462;47.384;19.218;2022-09-09T09:16:19;1.67;;;0.50;;
40757;SDS011;26462;47.384;19.218;2022-09-09T09:18:49;2.80;;;0.70;;
40757;SDS011;26462;47.384;19.218;2022-09-09T09:21:21;0.68;;;0.30;;
40757;SDS011;26462;47.384;19.218;2022-09-09T09:24:00;0.80;;;0.40;;
40757;SDS011;26462;47.384;19.218;2022-09-09T09:26:32;1.33;;;0.40;;
40757;SDS011;26462;47.384;19.218;2022-09-09T09:29:11;2.15;;;0.52;;
40757;SDS011;26462;47.384;19.218;2022-09-09T09:31:50;0.85;;;0.40;;
40757;SDS011;26462;47.384;19.218;2022-09-09T09:34:22;0.32;;;0.15;;
40757;SDS011;26462;47.384;19.218;2022-09-09T09:36:53;0.73;;;0.30;;
40757;SDS011;26462;47.384;19.218;2022-09-09T09:39:27;0.60;;;0.20;;
40757;SDS011;26462;47.384;19.218;2022-09-09T09:42:17;1.58;;;0.20;;
40757;SDS011;26462;47.384;19.218;2022-09-09T09:44:50;0.30;;;0.10;;
40757;SDS011;26462;47.384;19.218;2022-09-09T09:47:21;0.60;;;0.10;;
40757;SDS011;26462;47.384;19.218;2022-09-09T09:49:59;0.38;;;0.20;;
40757;SDS011;26462;47.384;19.218;2022-09-09T09:52:34;2.10;;;0.10;;
40757;SDS011;26462;47.384;19.218;2022-09-09T09:55:11;0.85;;;0.20;;
40757;SDS011;26462;47.384;19.218;2022-09-09T09:57:43;0.47;;;0.10;;
40757;SDS011;26462;47.384;19.218;2022-09-09T10:00:13;0.30;;;0.20;;
40757;SDS011;26462;47.384;19.218;2022-09-09T10:02:51;0.40;;;0.20;;
40757;SDS011;26462;47.384;19.218;2022-09-09T10:05:24;0.17;;;0.10;;
40757;SDS011;26462;47.384;19.218;2022-09-09T10:08:08;0.73;;;0.10;;
40757;SDS011;26462;47.384;19.218;2022-09-09T10:13:52;0.55;;;0.20;;
40757;SDS011;26462;47.384;19.218;2022-09-09T10:19:29;1.02;;;0.20;;
40757;SDS011;26462;47.384;19.218;2022-09-09T10:30:39;1.00;;;0.20;;
40757;SDS011;26462;47.384;19.218;2022-09-09T10:36:23;0.40;;;0.20;;
40757;SDS011;26462;47.384;19.218;2022-09-09T10:39:03;1.85;;;0.20;;
40757;SDS011;26462;47.384;19.218;2022-09-09T10:47:23;1.20;;;0.22;;
40757;SDS011;26462;47.384;19.218;2022-09-09T10:50:22;3.10;;;0.20;;
40757;SDS011;26462;47.384;19.218;2022-09-09T10:56:08;0.38;;;0.20;;
40757;SDS011;26462;47.384;19.218;2022-09-09T10:58:44;1.00;;;0.20;;
40757;SDS011;26462;47.384;19.218;2022-09-09T11:04:13;1.65;;;0.20;;
40757;SDS011;26462;47.384;19.218;2022-09-09T11:06:47;1.70;;;0.10;;
40757;SDS011;26462;47.384;19.218;2022-09-09T11:09:21;0.30;;;0.10;;
40757;SDS011;26462;47.384;19.218;2022-09-09T11:11:52;0.40;;;0.20;;
40757;SDS011;26462;47.384;19.218;2022-09-09T11:14:23;0.55;;;0.20;;
40757;SDS011;26462;47.384;19.218;2022-09-09T11:16:53;3.55;;;0.30;;
40757;SDS011;26462;47.384;19.218;2022-09-09T11:22:36;0.43;;;0.20;;
40757;SDS011;26462;47.384;19.218;2022-09-09T11:27:49;1.30;;;0.20;;
40757;SDS011;26462;47.384;19.218;2022-09-09T11:30:30;0.70;;;0.20;;
40757;SDS011;26462;47.384;19.218;2022-09-09T11:44:39;0.57;;;0.20;;
40757;SDS011;26462;47.384;19.218;2022-09-09T11:47:27;0.60;;;0.20;;
40757;SDS011;26462;47.384;19.218;2022-09-09T11:52:43;1.15;;;0.22;;
40757;SDS011;26462;47.384;19.218;2022-09-09T11:55:29;0.57;;;0.20;;
40757;SDS011;26462;47.384;19.218;2022-09-09T11:58:00;1.67;;;0.38;;
40757;SDS011;26462;47.384;19.218;2022-09-09T12:00:48;1.40;;;0.25;;
40757;SDS011;26462;47.384;19.218;2022-09-09T12:06:13;0.73;;;0.20;;
40757;SDS011;26462;47.384;19.218;2022-09-09T12:09:39;2.50;;;0.32;;
40757;SDS011;26462;47.384;19.218;2022-09-09T12:15:00;0.80;;;0.22;;
40757;SDS011;26462;47.384;19.218;2022-09-09T12:17:44;0.40;;;0.10;;
40757;SDS011;26462;47.384;19.218;2022-09-09T12:20:25;1.10;;;0.10;;
40757;SDS011;26462;47.384;19.218;2022-09-09T12:28:04;1.08;;;0.38;;
40757;SDS011;26462;47.384;19.218;2022-09-09T12:33:46;0.17;;;0.10;;
40757;SDS011;26462;47.384;19.218;2022-09-09T12:36:15;0.98;;;0.10;;
40757;SDS011;26462;47.384;19.218;2022-09-09T12:38:56;0.80;;;0.13;;
40757;SDS011;26462;47.384;19.218;2022-09-09T12:41:37;0.20;;;0.10;;
40757;SDS011;26462;47.384;19.218;2022-09-09T12:44:09;3.03;;;0.15;;
40757;SDS011;26462;47.384;19.218;2022-09-09T12:46:40;0.40;;;0.10;;
40757;SDS011;26462;47.384;19.218;2022-09-09T12:51:49;0.55;;;0.10;;
40757;SDS011;26462;47.384;19.218;2022-09-09T12:54:17;0.47;;;0.10;;
40757;SDS011;26462;47.384;19.218;2022-09-09T12:56:46;0.95;;;0.20;;
40757;SDS011;26462;47.384;19.218;2022-09-09T13:00:03;0.77;;;0.40;;
40757;SDS011;26462;47.384;19.218;2022-09-09T13:02:16;1.17;;;0.20;;
40757;SDS011;26462;47.384;19.218;2022-09-09T13:04:46;0.90;;;0.30;;
40757;SDS011;26462;47.384;19.218;2022-09-09T13:07:14;0.52;;;0.15;;
40757;SDS011;26462;47.384;19.218;2022-09-09T13:09:43;1.85;;;0.20;;
40757;SDS011;26462;47.384;19.218;2022-09-09T13:12:19;0.93;;;0.30;;
40757;SDS011;26462;47.384;19.218;2022-09-09T13:14:53;0.38;;;0.10;;
40757;SDS011;26462;47.384;19.218;2022-09-09T13:17:23;0.68;;;0.30;;
40757;SDS011;26462;47.384;19.218;2022-09-09T13:19:53;1.17;;;0.40;;
40757;SDS011;26462;47.384;19.218;2022-09-09T13:22:30;2.35;;;0.50;;
40757;SDS011;26462;47.384;19.218;2022-09-09T13:27:39;0.38;;;0.13;;
40757;SDS011;26462;47.384;19.218;2022-09-09T13:30:22;0.40;;;0.20;;
40757;SDS011;26462;47.384;19.218;2022-09-09T13:35:55;1.70;;;0.40;;
40757;SDS011;26462;47.384;19.218;2022-09-09T13:38:25;0.68;;;0.30;;
40757;SDS011;26462;47.384;19.218;2022-09-09T13:43:31;0.40;;;0.20;;
40757;SDS011;26462;47.384;19.218;2022-09-09T13:46:04;1.38;;;0.20;;
40757;SDS011;26462;47.384;19.218;2022-09-09T13:48:55;0.50;;;0.20;;
40757;SDS011;26462;47.384;19.218;2022-09-09T13:54:00;0.75;;;0.25;;
40757;SDS011;26462;47.384;19.218;2022-09-09T13:56:27;3.00;;;0.20;;
40757;SDS011;26462;47.384;19.218;2022-09-09T13:58:55;0.65;;;0.30;;
40757;SDS011;26462;47.384;19.218;2022-09-09T14:01:24;1.30;;;0.30;;
40757;SDS011;26462;47.384;19.218;2022-09-09T14:03:55;0.55;;;0.30;;
40757;SDS011;26462;47.384;19.218;2022-09-09T14:06:23;2.97;;;0.30;;
40757;SDS011;26462;47.384;19.218;2022-09-09T14:08:51;1.13;;;0.30;;
40757;SDS011;26462;47.384;19.218;2022-09-09T14:11:19;0.80;;;0.30;;
40757;SDS011;26462;47.384;19.218;2022-09-09T14:13:48;1.15;;;0.50;;
40757;SDS011;26462;47.384;19.218;2022-09-09T14:16:18;1.13;;;0.55;;
40757;SDS011;26462;47.384;19.218;2022-09-09T14:18:46;0.60;;;0.28;;
40757;SDS011;26462;47.384;19.218;2022-09-09T14:21:13;1.10;;;0.30;;
40757;SDS011;26462;47.384;19.218;2022-09-09T14:23:42;1.42;;;0.43;;
40757;SDS011;26462;47.384;19.218;2022-09-09T14:26:09;1.02;;;0.30;;
40757;SDS011;26462;47.384;19.218;2022-09-09T14:28:37;2.90;;;0.30;;
40757;SDS011;26462;47.384;19.218;2022-09-09T14:31:20;2.58;;;0.30;;
40757;SDS011;26462;47.384;19.218;2022-09-09T14:33:47;3.00;;;0.20;;
40757;SDS011;26462;47.384;19.218;2022-09-09T14:36:15;2.35;;;0.60;;
40757;SDS011;26462;47.384;19.218;2022-09-09T14:38:42;0.38;;;0.30;;
40757;SDS011;26462;47.384;19.218;2022-09-09T14:41:11;2.28;;;0.30;;
40757;SDS011;26462;47.384;19.218;2022-09-09T14:43:40;0.63;;;0.28;;
40757;SDS011;26462;47.384;19.218;2022-09-09T14:46:08;0.55;;;0.30;;
40757;SDS011;26462;47.384;19.218;2022-09-09T14:48:41;1.23;;;0.30;;
40757;SDS011;26462;47.384;19.218;2022-09-09T14:51:13;1.05;;;0.32;;
40757;SDS011;26462;47.384;19.218;2022-09-09T14:53:42;1.13;;;0.20;;
40757;SDS011;26462;47.384;19.218;2022-09-09T14:56:11;1.95;;;0.40;;
40757;SDS011;26462;47.384;19.218;2022-09-09T14:58:44;2.15;;;0.40;;
40757;SDS011;26462;47.384;19.218;2022-09-09T15:01:17;0.57;;;0.30;;
40757;SDS011;26462;47.384;19.218;2022-09-09T15:03:51;2.25;;;0.22;;
40757;SDS011;26462;47.384;19.218;2022-09-09T15:06:22;2.30;;;0.57;;
40757;SDS011;26462;47.384;19.218;2022-09-09T15:08:51;1.58;;;0.20;;
40757;SDS011;26462;47.384;19.218;2022-09-09T15:11:20;0.95;;;0.20;;
40757;SDS011;26462;47.384;19.218;2022-09-09T15:13:50;0.40;;;0.20;;
40757;SDS011;26462;47.384;19.218;2022-09-09T15:16:20;1.10;;;0.30;;
40757;SDS011;26462;47.384;19.218;2022-09-09T15:18:54;1.35;;;0.15;;
40757;SDS011;26462;47.384;19.218;2022-09-09T15:21:26;1.40;;;0.30;;
40757;SDS011;26462;47.384;19.218;2022-09-09T15:23:55;0.90;;;0.25;;
40757;SDS011;26462;47.384;19.218;2022-09-09T15:26:24;1.25;;;0.20;;
40757;SDS011;26462;47.384;19.218;2022-09-09T15:28:52;1.77;;;0.20;;
40757;SDS011;26462;47.384;19.218;2022-09-09T15:31:21;1.38;;;0.30;;
40757;SDS011;26462;47.384;19.218;2022-09-09T15:33:52;0.98;;;0.20;;
40757;SDS011;26462;47.384;19.218;2022-09-09T15:36:28;0.85;;;0.30;;
40757;SDS011;26462;47.384;19.218;2022-09-09T15:38:55;0.80;;;0.20;;
40757;SDS011;26462;47.384;19.218;2022-09-09T15:41:23;0.35;;;0.10;;
40757;SDS011;26462;47.384;19.218;2022-09-09T15:43:51;0.80;;;0.20;;
40757;SDS011;26462;47.384;19.218;2022-09-09T15:46:34;2.40;;;0.20;;
40757;SDS011;26462;47.384;19.218;2022-09-09T15:51:42;0.45;;;0.30;;
40757;SDS011;26462;47.384;19.218;2022-09-09T15:54:15;0.98;;;0.20;;
40757;SDS011;26462;47.384;19.218;2022-09-09T15:56:47;0.63;;;0.20;;
40757;SDS011;26462;47.384;19.218;2022-09-09T15:59:18;1.15;;;0.20;;
40757;SDS011;26462;47.384;19.218;2022-09-09T16:01:45;0.77;;;0.20;;
40757;SDS011;26462;47.384;19.218;2022-09-09T16:04:13;2.63;;;0.40;;
40757;SDS011;26462;47.384;19.218;2022-09-09T16:06:44;1.13;;;0.30;;
40757;SDS011;26462;47.384;19.218;2022-09-09T16:09:11;0.30;;;0.20;;
40757;SDS011;26462;47.384;19.218;2022-09-09T16:11:38;0.45;;;0.20;;
40757;SDS011;26462;47.384;19.218;2022-09-09T16:14:06;1.17;;;0.30;;
40757;SDS011;26462;47.384;19.218;2022-09-09T16:16:34;1.70;;;0.30;;
40757;SDS011;26462;47.384;19.218;2022-09-09T16:19:06;0.88;;;0.30;;
40757;SDS011;26462;47.384;19.218;2022-09-09T16:21:37;0.40;;;0.20;;
40757;SDS011;26462;47.384;19.218;2022-09-09T16:24:13;1.13;;;0.20;;
40757;SDS011;26462;47.384;19.218;2022-09-09T16:26:44;0.43;;;0.20;;
40757;SDS011;26462;47.384;19.218;2022-09-09T16:29:13;0.40;;;0.20;;
40757;SDS011;26462;47.384;19.218;2022-09-09T16:31:42;0.50;;;0.20;;
40757;SDS011;26462;47.384;19.218;2022-09-09T16:34:10;0.50;;;0.20;;
40757;SDS011;26462;47.384;19.218;2022-09-09T16:36:38;1.92;;;0.40;;
40757;SDS011;26462;47.384;19.218;2022-09-09T16:39:09;3.85;;;0.30;;
40757;SDS011;26462;47.384;19.218;2022-09-09T16:44:08;2.92;;;0.60;;
40757;SDS011;26462;47.384;19.218;2022-09-09T16:46:37;1.17;;;0.30;;
40757;SDS011;26462;47.384;19.218;2022-09-09T16:49:08;0.80;;;0.20;;
40757;SDS011;26462;47.384;19.218;2022-09-09T16:51:38;0.70;;;0.30;;
40757;SDS011;26462;47.384;19.218;2022-09-09T16:54:07;1.65;;;0.40;;
40757;SDS011;26462;47.384;19.218;2022-09-09T16:56:37;2.45;;;0.40;;
40757;SDS011;26462;47.384;19.218;2022-09-09T17:01:43;2.38;;;0.50;;
40757;SDS011;26462;47.384;19.218;2022-09-09T17:04:13;2.22;;;0.40;;
40757;SDS011;26462;47.384;19.218;2022-09-09T17:06:47;2.65;;;0.32;;
40757;SDS011;26462;47.384;19.218;2022-09-09T17:09:19;2.70;;;0.65;;
40757;SDS011;26462;47.384;19.218;2022-09-09T17:11:49;3.47;;;0.40;;
40757;SDS011;26462;47.384;19.218;2022-09-09T17:14:20;1.48;;;0.40;;
40757;SDS011;26462;47.384;19.218;2022-09-09T17:16:48;2.63;;;0.30;;
40757;SDS011;26462;47.384;19.218;2022-09-09T17:19:16;1.45;;;0.40;;
40757;SDS011;26462;47.384;19.218;2022-09-09T17:21:43;1.55;;;0.40;;
40757;SDS011;26462;47.384;19.218;2022-09-09T17:24:33;3.25;;;0.50;;
40757;SDS011;26462;47.384;19.218;2022-09-09T17:27:02;3.05;;;0.68;;
40757;SDS011;26462;47.384;19.218;2022-09-09T17:29:30;2.17;;;0.45;;
40757;SDS011;26462;47.384;19.218;2022-09-09T17:31:57;1.73;;;0.77;;
40757;SDS011;26462;47.384;19.218;2022-09-09T17:34:24;16.15;;;7.75;;
40757;SDS011;26462;47.384;19.218;2022-09-09T17:36:52;13.95;;;8.85;;
40757;SDS011;26462;47.384;19.218;2022-09-09T17:39:19;16.77;;;8.60;;
40757;SDS011;26462;47.384;19.218;2022-09-09T17:41:46;19.00;;;9.88;;